• Join FlightAware (Why Join?)
  • Login
  • US Flag 
07:46AM EDT


 

Airport Tracker/Info


-or-


 

Live Flight TrackerFlight Track Log ✈ AAL1624 ✈ 23-Apr-2013 ✈ KORD - KMCI

Flight Track Log - Related Links

Times and Time Zones

All times are in EDT time to prevent confusion due to time zone crossing. See the AAL1624 flight status page for this flight to view local times or setup timezone preferences in your user account.

Time Position Orientation Groundspeed Altitude Reporting Facility
EDT Latitude Longitude Course Direction KTS MPH feet Rate Location/Type
12:15AM 41.9940 -87.9380 297° West 159 183 1,300  Level FlightAware
12:15AM 42.0100 -87.9590 316° Northwest 167 192 2,500 2,280 Climbing FlightAware
12:16AM 42.0230 -87.9860 303° West 202 232 3,600 2,040 Climbing FlightAware
12:16AM 42.0150 -88.0190 252° West 248 285 4,400 1,500 Climbing FlightAware
12:17AM 41.9990 -88.0630 244° Southwest 263 303 5,000 900 Climbing FlightAware
12:17AM 41.9820 -88.1090 244° Southwest 269 310 5,300 1,020 Climbing FlightAware
12:17AM 41.9770 -88.1250 247° West 270 311 5,700 3,300 Climbing FlightAware
12:18AM 41.9620 -88.1700 246° West 263 303 7,500 3,720 Climbing FlightAware
12:18AM 41.9560 -88.1940 251° West 258 297 8,500 3,600 Climbing FlightAware
12:19AM 41.9540 -88.2580 268° West 262 302 10,800 3,840 Climbing FlightAware
12:20AM 41.9430 -88.3240 257° West 240 276 14,000 3,300 Climbing FlightAware
12:20AM 41.9280 -88.3840 251° West 279 321 15,500 2,520 Climbing FlightAware
12:21AM 41.9100 -88.4540 251° West 298 343 17,400 3,060 Climbing FlightAware
12:22AM 41.8890 -88.5360 251° West 306 352 19,900 3,120 Climbing FlightAware
12:22AM 41.8710 -88.6070 251° West 310 357 21,900 2,700 Climbing FlightAware
12:23AM 41.8490 -88.6890 250° West 321 369 23,800 2,400 Climbing FlightAware
12:24AM 41.8300 -88.7630 251° West 327 376 25,300 2,280 Climbing FlightAware
12:24AM 41.8090 -88.8410 250° West 333 383 26,900 2,400 Climbing FlightAware
12:25AM 41.7860 -88.9310 251° West 334 384 28,700 2,220 Climbing FlightAware
12:26AM 41.7650 -89.0090 250° West 336 387 30,100 1,920 Climbing FlightAware
12:27AM 41.7360 -89.0830 242° Southwest 337 388 31,300 2,160 Climbing FlightAware
12:27AM 41.7030 -89.1620 241° Southwest 326 375 33,200 2,280 Climbing FlightAware
12:28AM 41.6740 -89.2330 241° Southwest 320 368 34,600 1,860 Climbing FlightAware
12:29AM 41.6440 -89.3090 242° Southwest 319 367 35,900 960 Climbing FlightAware
12:29AM 41.6150 -89.3790 241° Southwest 325 374 36,000 120 Climbing FlightAware
12:30AM 41.5850 -89.4520 241° Southwest 328 377 36,100 780 Climbing FlightAware
12:31AM 41.5570 -89.5200 241° Southwest 324 373 37,100 1,320 Climbing FlightAware
12:32AM 41.5200 -89.6110 242° Southwest 327 376 38,100 1,080 Climbing FlightAware
12:32AM 41.4920 -89.6790 241° Southwest 328 377 38,800 900 Climbing FlightAware
12:33AM 41.4620 -89.7510 241° Southwest 334 384 39,300 600 Climbing FlightAware
12:34AM 41.4270 -89.8330 240° Southwest 345 397 39,700 480 Climbing FlightAware
12:34AM 41.3970 -89.9080 242° Southwest 351 404 40,000 180 Climbing FlightAware
12:35AM 41.3610 -89.9940 241° Southwest 354 407 40,000  Level FlightAware
12:36AM 41.3280 -90.0720 241° Southwest 355 409 40,000  Level FlightAware
12:36AM 41.2970 -90.1450 241° Southwest 355 409 40,000  Level FlightAware
12:37AM 41.2600 -90.2320 241° Southwest 355 409 40,000  Level FlightAware
12:38AM 41.2290 -90.3060 241° Southwest 355 409 40,000  Level FlightAware
12:38AM 41.1990 -90.3790 241° Southwest 355 409 40,000  Level FlightAware
12:39AM 41.1600 -90.4700 240° Southwest 356 410 40,000  Level FlightAware
12:40AM 41.1300 -90.5400 240° Southwest 357 411 40,000  Level FlightAware
12:41AM 41.0930 -90.6260 240° Southwest 358 412 40,000  Level FlightAware
12:41AM 41.0590 -90.7060 241° Southwest 358 412 40,000  Level FlightAware
12:42AM 41.0230 -90.7920 241° Southwest 358 412 40,000  Level FlightAware
12:43AM 40.9900 -90.8680 240° Southwest 359 413 40,000  Level FlightAware
12:43AM 40.9570 -90.9450 240° Southwest 359 413 40,000  Level FlightAware
12:44AM 40.9210 -91.0290 240° Southwest 360 414 40,000  Level FlightAware
12:45AM 40.8870 -91.1070 240° Southwest 359 413 40,000  Level FlightAware
12:45AM 40.8530 -91.1860 240° Southwest 358 412 40,000  Level FlightAware
12:46AM 40.8160 -91.2700 240° Southwest 357 411 40,000  Level FlightAware
12:47AM 40.7840 -91.3430 240° Southwest 357 411 40,000  Level FlightAware
12:48AM 40.7510 -91.4190 240° Southwest 356 410 40,000  Level FlightAware
12:48AM 40.7130 -91.5040 239° Southwest 356 410 40,000  Level FlightAware
12:49AM 40.6800 -91.5790 240° Southwest 354 407 40,000  Level FlightAware
12:50AM 40.6450 -91.6600 240° Southwest 354 407 40,000  Level FlightAware
12:50AM 40.6100 -91.7380 239° Southwest 355 409 40,000  Level FlightAware
12:51AM 40.5770 -91.8140 240° Southwest 355 409 40,000  Level FlightAware
12:52AM 40.5400 -91.8960 239° Southwest 356 410 40,000  Level FlightAware
12:52AM 40.5090 -91.9640 239° Southwest 356 410 40,000  Level FlightAware
12:53AM 40.4740 -92.0450 240° Southwest 357 411 40,000  Level FlightAware
12:54AM 40.4370 -92.1270 239° Southwest 358 412 40,000  Level FlightAware
12:55AM 40.4020 -92.2060 240° Southwest 359 413 40,000  Level FlightAware
12:55AM 40.3650 -92.2880 239° Southwest 358 412 40,000  Level FlightAware
12:56AM 40.3310 -92.3620 239° Southwest 357 411 40,000 -600 Level FlightAware
12:57AM 40.2950 -92.4410 239° Southwest 353 406 39,200 -1,020 Descending FlightAware
12:57AM 40.2610 -92.5170 240° Southwest 343 395 38,600 -1,020 Descending FlightAware
12:58AM 40.2280 -92.5890 239° Southwest 337 388 37,900 -1,020 Descending FlightAware
12:59AM 40.1940 -92.6640 239° Southwest 322 371 37,200 -960 Descending FlightAware
12:59AM 40.1640 -92.7290 239° Southwest 312 359 36,600 -1,020 Descending FlightAware
01:00AM 40.1300 -92.8040 239° Southwest 316 364 35,800 -1,020 Descending FlightAware
01:01AM 40.1000 -92.8700 239° Southwest 311 358 35,200 -960 Descending FlightAware
01:02AM 40.0670 -92.9410 239° Southwest 312 359 34,500 -960 Descending FlightAware
01:02AM 40.0370 -93.0060 239° Southwest 317 365 33,900 -1,020 Descending FlightAware
01:03AM 40.0070 -93.0710 239° Southwest 317 365 33,200 -1,020 Descending FlightAware
01:04AM 39.9730 -93.1440 239° Southwest 320 368 32,500 -1,020 Descending FlightAware
01:04AM 39.9420 -93.2120 239° Southwest 322 371 31,800 -1,020 Descending FlightAware
01:05AM 39.9100 -93.2810 239° Southwest 326 375 31,200 -1,080 Descending FlightAware
01:06AM 39.8770 -93.3520 239° Southwest 323 372 30,300 -1,740 Descending FlightAware
01:06AM 39.8460 -93.4180 239° Southwest 311 358 28,800 -2,220 Descending FlightAware
01:07AM 39.8120 -93.4900 238° Southwest 300 345 27,200 -2,100 Descending FlightAware
01:08AM 39.7850 -93.5490 239° Southwest 296 341 25,900 -2,040 Descending FlightAware
01:09AM 39.7550 -93.6110 238° Southwest 292 336 24,500 -2,100 Descending FlightAware
01:09AM 39.7250 -93.6760 239° Southwest 290 334 23,000 -2,100 Descending FlightAware
01:10AM 39.6970 -93.7360 239° Southwest 289 333 21,600 -2,580 Descending FlightAware
01:11AM 39.6630 -93.8050 237° Southwest 296 341 19,400 -3,120 Descending FlightAware
01:11AM 39.6300 -93.8630 234° Southwest 302 348 17,200 -3,120 Descending FlightAware
01:12AM 39.5980 -93.9210 234° Southwest 296 341 15,300 -3,600 Descending FlightAware
01:13AM 39.5600 -93.9880 234° Southwest 328 377 12,100 -3,000 Descending FlightAware
01:13AM 39.5260 -94.0480 234° Southwest 292 336 11,100 -1,500 Descending FlightAware
01:14AM 39.4920 -94.1090 234° Southwest 266 306 10,000 -1,560 Descending FlightAware
01:15AM 39.4740 -94.1400 233° Southwest 259 298 9,300 -1,440 Descending FlightAware
01:15AM 39.4540 -94.1750 234° Southwest 248 285 8,700 -1,200 Descending FlightAware
01:16AM 39.4370 -94.2060 235° Southwest 240 276 8,200 -1,320 Descending FlightAware
01:16AM 39.4160 -94.2420 233° Southwest 241 277 7,500 -1,320 Descending FlightAware
01:17AM 39.3970 -94.2750 233° Southwest 241 277 6,900 -1,200 Descending FlightAware
01:17AM 39.3810 -94.3040 234° Southwest 241 277 6,400 -1,200 Descending FlightAware
01:17AM 39.3710 -94.3220 234° Southwest 239 275 6,100 -1,080 Descending FlightAware
01:18AM 39.3560 -94.3500 235° Southwest 237 273 5,700 -1,080 Descending FlightAware
01:18AM 39.3450 -94.3690 233° Southwest 233 268 5,400 -960 Descending FlightAware
01:18AM 39.3270 -94.4010 234° Southwest 222 255 5,000 -780 Descending FlightAware
01:19AM 39.3130 -94.4250 233° Southwest 201 231 4,700 -900 Descending FlightAware
01:19AM 39.3040 -94.4410 234° Southwest 195 224 4,400 -960 Descending FlightAware
01:20AM 39.2910 -94.4670 237° Southwest 180 207 4,000 -1,020 Descending FlightAware
01:20AM 39.2810 -94.4870 237° Southwest 180 207 3,500 -1,380 Descending FlightAware
01:20AM 39.2750 -94.5030 244° Southwest 172 198 3,100 -720 Descending FlightAware
01:21AM 39.2730 -94.5320 265° West 164 189 3,000 -240 Descending FlightAware